CPA139 VHHH-YSSY
Flight info
| Callsign | CPA139 |
|---|---|
| Flight time | N/A |
| Altitude | 37000 |
| Route | DALOL V642 NOMAN A461 AVMUP W16 TATIL/N0487F390 W16 MIA DCT LIGPA B472 COT R590 AMN R340 GUTEV DCT 0937S13230E/N0481F410 1338S13520E 2017S14034E 2433S14448E 2646S14719E DCT SGE Y161 OVNOM H652 BOREE |
| Aircraft | A359/H-SDE2E3GHIJ3J4J5LM1ORWXY/LB1D1 |
Departure
| Time | 2026-05-06 06:22 |
|---|---|
| Airport | Hong Kong International Airport (VHHH) |
Arrival
| Time | N/A |
|---|---|
| Airport | Sydney Kingsford Smith International Airport (YSSY) |
| Time | Latitude | Longitude | Altitude | Speed | Heading |
|---|---|---|---|---|---|
| 2026-05-06 06:14 | 22.31627 | 113.92468 | 43 ft | 10 kts | 308° |
| 2026-05-06 06:15 | 22.31691 | 113.92432 | 43 ft | 12 kts | 339° |
| 2026-05-06 06:15 | 22.31735 | 113.92363 | 43 ft | 13 kts | 270° |
| 2026-05-06 06:15 | 22.31708 | 113.92264 | 43 ft | 15 kts | 252° |
| 2026-05-06 06:15 | 22.31671 | 113.92147 | 43 ft | 18 kts | 250° |
| 2026-05-06 06:16 | 22.31626 | 113.92014 | 43 ft | 20 kts | 250° |
| 2026-05-06 06:16 | 22.31576 | 113.91864 | 43 ft | 22 kts | 250° |
| 2026-05-06 06:16 | 22.31523 | 113.91700 | 43 ft | 24 kts | 251° |
| 2026-05-06 06:16 | 22.31468 | 113.91525 | 44 ft | 24 kts | 251° |
| 2026-05-06 06:17 | 22.31415 | 113.91356 | 44 ft | 24 kts | 251° |
| 2026-05-06 06:17 | 22.31359 | 113.91180 | 44 ft | 25 kts | 251° |
| 2026-05-06 06:17 | 22.31300 | 113.90998 | 43 ft | 26 kts | 250° |
| 2026-05-06 06:17 | 22.31239 | 113.90812 | 43 ft | 27 kts | 250° |
| 2026-05-06 06:18 | 22.31176 | 113.90618 | 43 ft | 24 kts | 250° |
| 2026-05-06 06:18 | 22.31131 | 113.90483 | 43 ft | 10 kts | 250° |
| 2026-05-06 06:18 | 22.31105 | 113.90403 | 41 ft | 13 kts | 251° |
| 2026-05-06 06:18 | 22.31070 | 113.90296 | 42 ft | 17 kts | 250° |
| 2026-05-06 06:19 | 22.31027 | 113.90164 | 43 ft | 20 kts | 251° |
| 2026-05-06 06:19 | 22.30980 | 113.90015 | 43 ft | 22 kts | 251° |
| 2026-05-06 06:19 | 22.30965 | 113.89967 | 43 ft | 1 kts | 251° |
| 2026-05-06 06:19 | 22.30961 | 113.89948 | 43 ft | 4 kts | 260° |
| 2026-05-06 06:20 | 22.30973 | 113.89910 | 40 ft | 7 kts | 304° |
| 2026-05-06 06:20 | 22.31017 | 113.89881 | 43 ft | 9 kts | 337° |
| 2026-05-06 06:20 | 22.31075 | 113.89861 | 43 ft | 9 kts | 352° |
| 2026-05-06 06:20 | 22.31124 | 113.89896 | 43 ft | 10 kts | 61° |
| 2026-05-06 06:21 | 22.31152 | 113.89981 | 43 ft | 19 kts | 71° |
| 2026-05-06 06:21 | 22.31266 | 113.90333 | 41 ft | 82 kts | 71° |
| 2026-05-06 06:21 | 22.31518 | 113.91109 | 46 ft | 134 kts | 71° |
| 2026-05-06 06:21 | 22.31877 | 113.92220 | 96 ft | 176 kts | 71° |
| 2026-05-06 06:22 | 22.32293 | 113.93490 | 509 ft | 186 kts | 71° |
| 2026-05-06 06:22 | 22.32728 | 113.94880 | 843 ft | 206 kts | 73° |
| 2026-05-06 06:22 | 22.33189 | 113.96387 | 1339 ft | 213 kts | 74° |
| 2026-05-06 06:22 | 22.33553 | 113.97980 | 1711 ft | 223 kts | 79° |
| 2026-05-06 06:23 | 22.33837 | 113.99635 | 2237 ft | 225 kts | 81° |
| 2026-05-06 06:23 | 22.34103 | 114.01311 | 2779 ft | 228 kts | 81° |
| 2026-05-06 06:23 | 22.34348 | 114.03030 | 3286 ft | 233 kts | 85° |
| 2026-05-06 06:23 | 22.34273 | 114.04782 | 3774 ft | 237 kts | 103° |
| 2026-05-06 06:24 | 22.33653 | 114.06425 | 4285 ft | 237 kts | 124° |
| 2026-05-06 06:24 | 22.32536 | 114.07727 | 4819 ft | 237 kts | 145° |
| 2026-05-06 06:24 | 22.31071 | 114.08523 | 5335 ft | 237 kts | 165° |
| 2026-05-06 06:24 | 22.29447 | 114.08769 | 5874 ft | 236 kts | 179° |
| 2026-05-06 06:25 | 22.27799 | 114.08781 | 6416 ft | 237 kts | 182° |
| 2026-05-06 06:25 | 22.26137 | 114.08761 | 6904 ft | 240 kts | 182° |
| 2026-05-06 06:25 | 22.22689 | 114.08718 | 7564 ft | 262 kts | 182° |
| 2026-05-06 06:26 | 22.20818 | 114.08688 | 7844 ft | 274 kts | 182° |
| 2026-05-06 06:26 | 22.18891 | 114.08683 | 8270 ft | 280 kts | 180° |
| 2026-05-06 06:26 | 22.16965 | 114.09115 | 8727 ft | 289 kts | 159° |
| 2026-05-06 06:26 | 22.15330 | 114.10393 | 9182 ft | 298 kts | 133° |
| 2026-05-06 06:27 | 22.14206 | 114.12295 | 9680 ft | 303 kts | 120° |
| 2026-05-06 06:27 | 22.13252 | 114.14332 | 10119 ft | 308 kts | 118° |
| 2026-05-06 06:27 | 22.12279 | 114.16450 | 10319 ft | 322 kts | 118° |
| 2026-05-06 06:27 | 22.11263 | 114.18650 | 10505 ft | 335 kts | 118° |
| 2026-05-06 06:28 | 22.10197 | 114.20938 | 10689 ft | 347 kts | 118° |
| 2026-05-06 06:28 | 22.09087 | 114.23298 | 10875 ft | 359 kts | 118° |
| 2026-05-06 06:28 | 22.07818 | 114.25653 | 11056 ft | 367 kts | 128° |
| 2026-05-06 06:28 | 22.06010 | 114.27591 | 11381 ft | 369 kts | 143° |
| 2026-05-06 06:29 | 22.03950 | 114.29255 | 11752 ft | 372 kts | 146° |
| 2026-05-06 06:29 | 22.01869 | 114.30870 | 12134 ft | 375 kts | 146° |
| 2026-05-06 06:29 | 21.99748 | 114.32518 | 12498 ft | 378 kts | 146° |